createdAt,value
2022-07-29T00:01:53.401Z,102341.31
2022-07-29T00:04:58.977Z,102336.09
2022-07-29T00:08:06.346Z,102338.03
2022-07-29T00:11:15.042Z,102340.69
2022-07-29T00:14:20.131Z,102343.19
2022-07-29T00:17:27.170Z,102336.00
2022-07-29T00:20:32.504Z,102337.84
2022-07-29T00:23:37.918Z,102332.41
2022-07-29T00:26:43.052Z,102340.19
2022-07-29T00:29:48.497Z,102335.72
2022-07-29T00:32:54.969Z,102330.66
2022-07-29T00:36:00.126Z,102323.00
2022-07-29T00:39:05.374Z,102329.78
2022-07-29T00:42:11.156Z,102333.47
2022-07-29T00:45:17.282Z,102326.63
2022-07-29T00:48:23.917Z,102323.84
2022-07-29T00:51:29.957Z,102324.84
2022-07-29T00:54:39.829Z,102324.34
2022-07-29T00:57:49.781Z,102318.38
2022-07-29T01:00:55.549Z,102324.38
2022-07-29T01:04:02.646Z,102322.59
2022-07-29T01:07:08.464Z,102314.81
2022-07-29T01:10:16.313Z,102315.81
2022-07-29T01:13:22.140Z,102322.59
2022-07-29T01:16:33.374Z,102326.09
2022-07-29T01:19:51.560Z,102324.50
2022-07-29T01:23:11.478Z,102325.44
2022-07-29T01:26:34.153Z,102313.47
2022-07-29T01:29:46.122Z,102315.88
2022-07-29T01:32:57.169Z,102315.75
2022-07-29T01:36:06.425Z,102320.16
2022-07-29T01:39:16.670Z,102323.53
2022-07-29T01:42:29.869Z,102318.06
2022-07-29T01:45:42.684Z,102317.47
2022-07-29T01:48:51.149Z,102322.41
2022-07-29T01:52:01.191Z,102324.91
2022-07-29T01:55:12.141Z,102327.31
2022-07-29T01:58:20.577Z,102328.34
2022-07-29T02:01:28.893Z,102327.59
2022-07-29T02:04:35.017Z,102324.78
2022-07-29T02:07:41.807Z,102318.81
2022-07-29T02:10:47.695Z,102324.69
2022-07-29T02:13:53.818Z,102323.00
2022-07-29T02:17:01.526Z,102324.16
2022-07-29T02:20:09.794Z,102338.00
2022-07-29T02:23:22.950Z,102328.53
2022-07-29T02:26:28.800Z,102327.50
2022-07-29T02:29:35.332Z,102332.59
2022-07-29T02:32:43.387Z,102330.94
2022-07-29T02:35:49.966Z,102334.41
2022-07-29T02:38:58.554Z,102325.06
2022-07-29T02:42:07.953Z,102337.75
2022-07-29T02:45:13.661Z,102335.19
2022-07-29T02:48:23.628Z,102338.28
2022-07-29T02:51:43.390Z,102344.41
2022-07-29T02:54:58.210Z,102346.75
2022-07-29T02:58:05.776Z,102345.88
2022-07-29T03:01:21.740Z,102340.47
2022-07-29T03:04:30.408Z,102350.78
2022-07-29T03:07:37.112Z,102351.00
2022-07-29T03:10:46.692Z,102350.97
2022-07-29T03:13:52.364Z,102350.88
2022-07-29T03:16:58.313Z,102354.31
2022-07-29T03:20:05.992Z,102354.25
2022-07-29T03:23:13.194Z,102362.97
2022-07-29T03:26:18.607Z,102363.75
2022-07-29T03:29:23.917Z,102359.25
2022-07-29T03:32:30.329Z,102364.44
2022-07-29T03:35:37.536Z,102366.03
2022-07-29T03:38:43.925Z,102367.03
2022-07-29T03:41:52.132Z,102368.53
2022-07-29T03:44:58.960Z,102363.50
2022-07-29T03:48:09.491Z,102364.28
2022-07-29T03:51:16.397Z,102357.28
2022-07-29T03:54:22.013Z,102364.97
2022-07-29T03:57:29.653Z,102361.53
2022-07-29T04:00:35.914Z,102360.81
2022-07-29T04:03:41.697Z,102365.81
2022-07-29T04:06:49.008Z,102372.53
2022-07-29T04:09:54.344Z,102377.69
2022-07-29T04:12:59.879Z,102375.09
2022-07-29T04:16:05.383Z,102377.63
2022-07-29T04:19:10.893Z,102368.00
2022-07-29T04:22:17.295Z,102379.06
2022-07-29T04:25:22.977Z,102369.63
2022-07-29T04:28:49.796Z,102373.00
2022-07-29T04:31:55.317Z,102376.31
2022-07-29T04:35:00.385Z,102372.72
2022-07-29T04:38:15.716Z,102374.44
2022-07-29T04:41:22.161Z,102374.44
2022-07-29T04:44:29.599Z,102373.41
2022-07-29T04:47:35.692Z,102371.66
2022-07-29T04:50:41.761Z,102379.25
2022-07-29T04:53:48.235Z,102379.09
2022-07-29T04:56:53.342Z,102381.59
2022-07-29T04:59:58.806Z,102375.59
2022-07-29T05:03:04.286Z,102372.88
2022-07-29T05:06:09.504Z,102372.88
2022-07-29T05:09:16.154Z,102382.06
2022-07-29T05:12:21.319Z,102382.03
2022-07-29T05:15:26.833Z,102375.91
2022-07-29T05:18:32.396Z,102377.50
2022-07-29T05:21:37.768Z,102368.84
2022-07-29T05:24:45.386Z,102376.41
2022-07-29T05:27:52.405Z,102386.53
2022-07-29T05:30:57.707Z,102378.72
2022-07-29T05:34:03.073Z,102382.06
2022-07-29T05:37:08.727Z,102387.88
2022-07-29T05:40:15.686Z,102383.47
2022-07-29T05:43:22.015Z,102399.66
2022-07-29T05:46:27.241Z,102378.66
2022-07-29T05:49:32.951Z,102392.31
2022-07-29T05:52:38.203Z,102391.13
2022-07-29T05:55:44.788Z,102389.66
2022-07-29T05:58:49.998Z,102393.41
2022-07-29T06:01:55.164Z,102395.28
2022-07-29T06:05:01.106Z,102396.34
2022-07-29T06:08:08.406Z,102393.28
2022-07-29T06:11:15.236Z,102395.59
2022-07-29T06:14:20.997Z,102398.38
2022-07-29T06:17:26.596Z,102397.25
2022-07-29T06:20:32.675Z,102404.56
2022-07-29T06:23:39.341Z,102401.53
2022-07-29T06:26:45.897Z,102407.78
2022-07-29T06:29:51.370Z,102404.84
2022-07-29T06:32:56.581Z,102410.53
2022-07-29T06:36:01.923Z,102413.97
2022-07-29T06:39:08.617Z,102413.38
2022-07-29T06:42:15.298Z,102409.69
2022-07-29T06:45:20.456Z,102407.03
2022-07-29T06:48:26.030Z,102414.69
2022-07-29T06:51:31.371Z,102409.63
2022-07-29T06:54:36.668Z,102408.28
2022-07-29T06:57:43.225Z,102417.66
2022-07-29T07:00:48.836Z,102420.56
2022-07-29T07:03:53.921Z,102419.09
2022-07-29T07:07:00.593Z,102417.97
2022-07-29T07:10:07.268Z,102413.09
2022-07-29T07:13:18.211Z,102411.09
2022-07-29T07:16:23.952Z,102411.63
2022-07-29T07:19:29.577Z,102404.53
2022-07-29T07:22:38.793Z,102403.34
2022-07-29T07:25:44.338Z,102412.53
2022-07-29T07:28:50.848Z,102412.69
2022-07-29T07:32:00.504Z,102393.81
2022-07-29T07:35:09.097Z,102400.75
2022-07-29T07:38:16.189Z,102396.34
2022-07-29T07:41:21.338Z,102399.38
2022-07-29T07:44:28.170Z,102395.22
2022-07-29T07:47:34.239Z,102400.41
2022-07-29T07:50:39.680Z,102389.97
2022-07-29T07:53:45.806Z,102384.84
2022-07-29T07:56:53.299Z,102389.06
2022-07-29T08:00:00.041Z,102381.50
2022-07-29T08:03:05.531Z,102390.72
2022-07-29T08:06:22.019Z,102389.22
2022-07-29T08:09:30.670Z,102386.38
2022-07-29T08:12:35.994Z,102388.63
2022-07-29T08:15:44.165Z,102389.66
2022-07-29T08:18:49.822Z,102389.66
2022-07-29T08:21:55.819Z,102396.28
2022-07-29T08:25:01.421Z,102388.63
2022-07-29T08:28:08.061Z,102395.16
2022-07-29T08:31:16.317Z,102389.41
2022-07-29T08:34:27.709Z,102389.78
2022-07-29T08:37:33.337Z,102390.53
2022-07-29T08:40:38.887Z,102393.13
2022-07-29T08:43:44.137Z,102387.00
2022-07-29T08:46:51.597Z,102385.00
2022-07-29T08:49:56.675Z,102379.28
2022-07-29T08:53:01.974Z,102379.75
2022-07-29T08:56:07.400Z,102385.53
2022-07-29T08:59:15.904Z,102394.53
2022-07-29T09:02:24.679Z,102388.97
2022-07-29T09:05:30.967Z,102389.53
2022-07-29T09:08:36.741Z,102378.94
2022-07-29T09:11:42.809Z,102382.13
2022-07-29T09:14:47.976Z,102380.81
2022-07-29T09:17:54.484Z,102385.56
2022-07-29T09:21:28.561Z,102380.44
2022-07-29T09:24:45.364Z,102381.53
2022-07-29T09:27:53.136Z,102381.41
2022-07-29T09:31:00.275Z,102379.66
2022-07-29T09:34:07.557Z,102377.13
2022-07-29T09:37:13.265Z,102376.34
2022-07-29T09:40:20.872Z,102370.19
2022-07-29T09:43:26.354Z,102373.75
2022-07-29T09:46:31.626Z,102361.53
2022-07-29T09:49:53.410Z,102362.88
2022-07-29T09:52:58.612Z,102360.50
2022-07-29T09:56:03.936Z,102369.25
2022-07-29T09:59:10.100Z,102368.06
2022-07-29T10:02:21.710Z,102374.03
2022-07-29T10:05:36.362Z,102364.19
2022-07-29T10:08:44.609Z,102367.03
2022-07-29T10:12:10.148Z,102367.03
2022-07-29T10:15:15.548Z,102365.03
2022-07-29T10:18:21.071Z,102367.25
2022-07-29T10:21:35.950Z,102357.19
2022-07-29T10:24:42.188Z,102353.44
2022-07-29T10:27:49.034Z,102361.28
2022-07-29T10:31:00.510Z,102364.22
2022-07-29T10:34:12.980Z,102360.97
2022-07-29T10:37:26.916Z,102352.00
2022-07-29T10:41:08.585Z,102355.72
2022-07-29T10:44:19.133Z,102353.84
2022-07-29T10:47:26.822Z,102355.31
2022-07-29T10:50:56.408Z,102346.38
2022-07-29T10:54:06.697Z,102352.97
2022-07-29T10:57:15.726Z,102349.72
2022-07-29T11:00:34.918Z,102342.31
2022-07-29T11:03:52.444Z,102335.34
2022-07-29T11:07:11.645Z,102340.50
2022-07-29T11:10:31.239Z,102340.19
2022-07-29T11:13:57.937Z,102337.06
2022-07-29T11:17:06.920Z,102326.25
2022-07-29T11:20:37.964Z,102323.44
2022-07-29T11:23:44.648Z,102324.16
2022-07-29T11:27:20.095Z,102320.16
2022-07-29T11:30:53.032Z,102325.28
2022-07-29T11:34:03.820Z,102315.66
2022-07-29T11:37:27.949Z,102320.31
2022-07-29T11:40:33.947Z,102321.47
2022-07-29T11:43:54.135Z,102317.88
2022-07-29T11:46:59.636Z,102317.69
2022-07-29T11:50:10.344Z,102324.19
2022-07-29T11:53:17.292Z,102324.97
2022-07-29T11:56:25.558Z,102319.22
2022-07-29T11:59:33.525Z,102322.47
2022-07-29T12:02:48.540Z,102323.63
2022-07-29T12:05:54.228Z,102322.00
2022-07-29T12:09:02.729Z,102320.03
2022-07-29T12:12:12.538Z,102317.22
2022-07-29T12:15:22.417Z,102308.84
2022-07-29T12:18:28.349Z,102312.44
2022-07-29T12:21:56.173Z,102310.69
2022-07-29T12:25:30.397Z,102316.03
2022-07-29T12:28:31.067Z,102314.47
2022-07-29T12:31:43.474Z,102302.59
2022-07-29T12:34:49.685Z,102302.66
2022-07-29T12:37:55.817Z,102306.66
2022-07-29T12:41:01.429Z,102296.63
2022-07-29T12:44:09.691Z,102295.25
2022-07-29T12:47:16.518Z,102294.25
2022-07-29T12:50:26.157Z,102290.22
2022-07-29T12:53:31.781Z,102298.63
2022-07-29T12:56:45.174Z,102291.91
2022-07-29T13:00:11.115Z,102292.63
2022-07-29T13:03:20.842Z,102285.41
2022-07-29T13:08:29.472Z,102284.78
2022-07-29T13:10:15.549Z,102285.06
2022-07-29T13:13:20.633Z,102276.91
2022-07-29T13:16:26.057Z,102277.13
2022-07-29T13:19:41.593Z,102278.97
2022-07-29T13:22:50.424Z,102281.75
2022-07-29T13:25:55.486Z,102272.47
2022-07-29T13:29:00.943Z,102274.94
2022-07-29T13:32:07.250Z,102264.75
2022-07-29T13:35:14.427Z,102273.19
2022-07-29T13:38:19.564Z,102275.09
2022-07-29T13:41:24.805Z,102266.59
2022-07-29T13:44:31.271Z,102266.88
2022-07-29T13:47:36.629Z,102251.56
2022-07-29T13:50:43.145Z,102249.66
2022-07-29T13:53:48.266Z,102249.38
2022-07-29T13:56:53.774Z,102247.47
2022-07-29T13:59:59.436Z,102240.41
2022-07-29T14:03:04.866Z,102236.78
2022-07-29T14:06:14.421Z,102227.25
2022-07-29T14:09:20.104Z,102228.84
2022-07-29T14:12:25.395Z,102235.09
2022-07-29T14:15:30.529Z,102229.63
2022-07-29T14:18:35.687Z,102236.38
2022-07-29T14:21:42.860Z,102224.78
2022-07-29T14:24:50.715Z,102226.19
2022-07-29T14:27:56.640Z,102239.22
2022-07-29T14:31:03.838Z,102233.84
2022-07-29T14:34:11.221Z,102228.63
2022-07-29T14:37:18.412Z,102230.72
2022-07-29T14:40:23.733Z,102228.91
2022-07-29T14:43:29.105Z,102226.34
2022-07-29T14:46:34.728Z,102221.59
2022-07-29T14:49:40.139Z,102222.59
2022-07-29T14:52:46.591Z,102222.50
2022-07-29T14:55:52.036Z,102229.88
2022-07-29T14:58:57.118Z,102230.31
2022-07-29T15:02:02.810Z,102233.72
2022-07-29T15:05:09.354Z,102237.16
2022-07-29T15:08:16.000Z,102235.81
2022-07-29T15:11:21.260Z,102230.69
2022-07-29T15:14:26.386Z,102225.50
2022-07-29T15:17:31.597Z,102223.25
2022-07-29T15:20:36.927Z,102219.44
2022-07-29T15:23:43.453Z,102216.53
2022-07-29T15:26:49.287Z,102220.44
2022-07-29T15:29:54.355Z,102216.72
2022-07-29T15:32:59.628Z,102215.31
2022-07-29T15:36:06.301Z,102217.25
2022-07-29T15:39:12.972Z,102220.53
2022-07-29T15:42:18.077Z,102217.38
2022-07-29T15:45:23.364Z,102220.91
2022-07-29T15:48:29.266Z,102220.28
2022-07-29T15:51:34.687Z,102215.84
2022-07-29T15:54:41.855Z,102222.06
2022-07-29T15:57:48.533Z,102214.09
2022-07-29T16:00:53.892Z,102213.34
2022-07-29T16:04:00.234Z,102206.69
2022-07-29T16:07:05.604Z,102212.25
2022-07-29T16:10:12.720Z,102196.94
2022-07-29T16:13:18.989Z,102191.25
2022-07-29T16:16:26.130Z,102198.47
2022-07-29T16:19:31.281Z,102193.00
2022-07-29T16:22:36.729Z,102189.78
2022-07-29T16:25:59.274Z,102186.44
2022-07-29T16:29:05.979Z,102196.09
2022-07-29T16:32:12.553Z,102181.59
2022-07-29T16:35:17.821Z,102187.53
2022-07-29T16:38:23.049Z,102177.84
2022-07-29T16:41:29.790Z,102182.16
2022-07-29T16:44:35.991Z,102180.81
2022-07-29T16:47:41.313Z,102177.78
2022-07-29T16:50:47.367Z,102179.47
2022-07-29T16:53:52.496Z,102179.94
2022-07-29T16:57:00.876Z,102183.81
2022-07-29T17:00:08.912Z,102179.50
2022-07-29T17:03:17.366Z,102177.59
2022-07-29T17:06:22.672Z,102173.22
2022-07-29T17:09:27.936Z,102183.56
2022-07-29T17:12:34.787Z,102181.88
2022-07-29T17:15:42.532Z,102182.09
2022-07-29T17:18:47.736Z,102175.44
2022-07-29T17:21:57.123Z,102178.03
2022-07-29T17:25:08.177Z,102175.34
2022-07-29T17:28:15.177Z,102173.88
2022-07-29T17:31:20.489Z,102172.88
2022-07-29T17:34:25.649Z,102183.06
2022-07-29T17:37:30.845Z,102183.16
2022-07-29T17:40:36.203Z,102189.75
2022-07-29T17:43:43.553Z,102178.97
2022-07-29T17:46:48.746Z,102184.63
2022-07-29T17:49:53.877Z,102191.53
2022-07-29T17:52:59.360Z,102187.00
2022-07-29T17:56:06.420Z,102191.59
2022-07-29T17:59:14.523Z,102183.72
2022-07-29T18:02:19.848Z,102186.56
2022-07-29T18:05:25.223Z,102183.97
2022-07-29T18:08:30.526Z,102184.50
2022-07-29T18:11:35.710Z,102179.50
2022-07-29T18:14:42.249Z,102187.25
2022-07-29T18:17:56.677Z,102186.25
2022-07-29T18:21:03.193Z,102200.50
2022-07-29T18:24:09.683Z,102199.06
2022-07-29T18:27:14.924Z,102204.41
2022-07-29T18:30:22.202Z,102200.72
2022-07-29T18:33:27.936Z,102204.56
2022-07-29T18:36:33.152Z,102201.78
2022-07-29T18:39:38.560Z,102206.69
2022-07-29T18:42:43.725Z,102214.63
2022-07-29T18:45:50.876Z,102211.31
2022-07-29T18:48:57.396Z,102207.47
2022-07-29T18:52:02.577Z,102209.28
2022-07-29T18:55:09.757Z,102204.88
2022-07-29T18:58:15.565Z,102209.81
2022-07-29T19:01:22.205Z,102216.25
2022-07-29T19:04:27.737Z,102206.84
2022-07-29T19:07:33.220Z,102205.94
2022-07-29T19:10:38.549Z,102202.19
2022-07-29T19:13:43.680Z,102211.81
2022-07-29T19:16:50.308Z,102207.88
2022-07-29T19:19:55.650Z,102212.59
2022-07-29T19:23:00.965Z,102206.63
2022-07-29T19:26:06.670Z,102208.84
2022-07-29T19:29:15.100Z,102209.63
2022-07-29T19:32:24.857Z,102214.16
2022-07-29T19:35:32.218Z,102210.16
2022-07-29T19:38:39.762Z,102211.19
2022-07-29T19:41:44.936Z,102213.88
2022-07-29T19:44:50.137Z,102225.56
2022-07-29T19:48:01.326Z,102216.34
2022-07-29T19:51:07.359Z,102217.13
2022-07-29T19:54:12.735Z,102217.22
2022-07-29T19:57:18.248Z,102219.75
2022-07-29T20:00:25.237Z,102219.22
2022-07-29T20:03:32.149Z,102211.91
2022-07-29T20:06:37.359Z,102217.88
2022-07-29T20:09:43.553Z,102222.50
2022-07-29T20:12:48.833Z,102215.16
2022-07-29T20:15:57.714Z,102210.66
2022-07-29T20:19:04.266Z,102218.78
2022-07-29T20:22:10.329Z,102216.19
2022-07-29T20:25:15.752Z,102214.50
2022-07-29T20:28:21.063Z,102214.25
2022-07-29T20:31:26.313Z,102220.47
2022-07-29T20:34:33.286Z,102219.88
2022-07-29T20:37:55.681Z,102216.50
2022-07-29T20:41:01.695Z,102213.13
2022-07-29T20:44:07.816Z,102208.72
2022-07-29T20:47:13.618Z,102203.06
2022-07-29T20:50:23.820Z,102208.28
2022-07-29T20:53:29.515Z,102207.22
2022-07-29T20:56:34.652Z,102216.63
2022-07-29T20:59:44.070Z,102217.94
2022-07-29T21:02:51.730Z,102213.41
2022-07-29T21:05:58.308Z,102205.69
2022-07-29T21:09:03.524Z,102216.38
2022-07-29T21:12:11.112Z,102215.41
2022-07-29T21:15:17.009Z,102219.03
2022-07-29T21:18:30.601Z,102214.34
2022-07-29T21:21:39.071Z,102214.03
2022-07-29T21:24:44.518Z,102220.81
2022-07-29T21:28:07.423Z,102215.66
2022-07-29T21:31:15.060Z,102214.25
2022-07-29T21:34:20.210Z,102211.13
2022-07-29T21:37:27.171Z,102210.81
2022-07-29T21:40:32.308Z,102210.13
2022-07-29T21:43:37.655Z,102209.22
2022-07-29T21:46:47.572Z,102202.38
2022-07-29T21:49:53.070Z,102215.09
2022-07-29T21:52:59.698Z,102209.84
2022-07-29T21:56:04.924Z,102207.31
2022-07-29T21:59:12.921Z,102216.69
2022-07-29T22:05:42.286Z,102202.25
2022-07-29T22:08:48.768Z,102210.97
2022-07-29T22:11:54.373Z,102199.09
2022-07-29T22:14:59.713Z,102207.22
2022-07-29T22:18:05.398Z,102198.78
2022-07-29T22:21:12.245Z,102200.88
2022-07-29T22:24:18.677Z,102207.91
2022-07-29T22:27:24.398Z,102199.47
2022-07-29T22:30:30.067Z,102203.19
2022-07-29T22:33:35.210Z,102204.09
2022-07-29T22:36:40.560Z,102203.44
2022-07-29T22:39:47.305Z,102201.03
2022-07-29T22:42:52.453Z,102197.88
2022-07-29T22:45:57.705Z,102197.69
2022-07-29T22:49:03.089Z,102199.56
2022-07-29T22:52:09.193Z,102194.34
2022-07-29T22:55:16.033Z,102191.81
2022-07-29T22:58:21.716Z,102197.03
2022-07-29T23:01:35.889Z,102194.41
2022-07-29T23:04:43.126Z,102199.56
2022-07-29T23:07:48.331Z,102203.78
2022-07-29T23:10:54.815Z,102204.66
2022-07-29T23:14:00.041Z,102191.13
2022-07-29T23:17:06.181Z,102197.19
2022-07-29T23:20:14.837Z,102189.69
2022-07-29T23:23:20.224Z,102199.44
2022-07-29T23:26:26.844Z,102196.84
2022-07-29T23:29:36.590Z,102194.47
2022-07-29T23:32:42.220Z,102201.63
2022-07-29T23:35:47.374Z,102199.84
2022-07-29T23:38:52.524Z,102199.88
2022-07-29T23:41:59.249Z,102202.00
2022-07-29T23:45:04.908Z,102206.97
2022-07-29T23:48:12.364Z,102207.03
2022-07-29T23:51:17.885Z,102213.94
2022-07-29T23:54:23.098Z,102215.72
2022-07-29T23:57:29.736Z,102207.09
